Terminal Aerodrome Forecast
Issued by NWS Sioux Falls, SD

Home | Current Version | Previous Version | Text Only | Print | Product List | Glossary On
Versions: 1 2 3 4 5 6 7 8 9 10 11 12 13 14 15 16 17 18 19 20 21 22
000
FTUS43 KFSD 231120
TAFFSD
TAF
KFSD 231120Z 2312/2412 10011KT 5SM BR OVC010
     FM231600 12011KT P6SM BKN025
     FM231800 13013G19KT P6SM SKC
     FM240100 15012KT P6SM SKC=

USA.gov is the U.S. government's official web portal to all federal, state and local government web resources and services.